Time;durP1;ratioP1;P1;durP2;ratioP2;P2;SDS_P1;SDS_P2;PMS_P1;PMS_P2;Temp;Humidity;BMP_temperature;BMP_pressure;BME280_temperature;BME280_humidity;BME280_pressure;Samples;Min_cycle;Max_cycle;Signal;HPM_P1;HPM_P2
2022/04/22 00:01:40;;;;;;;20.52;14.73;;;;;;;8.45;87.77;93292.69;5109362;28;20027;-39
2022/04/22 00:04:06;;;;;;;24.98;17.20;;;;;;;8.35;87.29;93273.22;5110075;28;20035;-39
2022/04/22 00:06:31;;;;;;;23.13;16.58;;;;;;;8.25;87.97;93264.69;5109856;28;20587;-38
2022/04/22 00:08:57;;;;;;;24.08;17.08;;;;;;;8.27;88.28;93245.63;5111283;27;20028;-38
2022/04/22 00:11:32;;;;;;;22.27;15.20;;;;;;;8.31;88.02;93242.56;5111571;28;20026;-38
2022/04/22 00:14:01;;;;;;;19.92;13.98;;;;;;;8.37;87.89;93243.16;5101988;28;20058;-39
2022/04/22 00:16:28;;;;;;;22.35;16.52;;;;;;;8.48;87.36;93237.34;5090536;28;20102;-38
2022/04/22 00:18:54;;;;;;;24.00;16.40;;;;;;;8.45;87.29;93249.44;5105268;28;20525;-38
2022/04/22 00:21:20;;;;;;;23.27;17.77;;;;;;;8.29;87.50;93239.59;5111506;28;20031;-39
2022/04/22 00:23:45;;;;;;;33.30;21.80;;;;;;;8.26;88.58;93248.94;5110534;28;20078;-38
2022/04/22 00:26:11;;;;;;;26.33;18.00;;;;;;;8.28;88.20;93244.38;5110996;28;20040;-38
2022/04/22 00:28:37;;;;;;;24.85;17.63;;;;;;;8.34;88.23;93235.97;5110876;28;20024;-39
2022/04/22 00:31:02;;;;;;;22.73;15.70;;;;;;;8.14;88.66;93231.22;5111180;28;20019;-39
2022/04/22 00:33:28;;;;;;;22.58;14.77;;;;;;;8.14;89.62;93245.69;5110953;28;20031;-39
2022/04/22 00:35:53;;;;;;;26.60;15.63;;;;;;;8.15;89.73;93251.91;5110971;27;20156;-39
2022/04/22 00:38:19;;;;;;;20.33;14.23;;;;;;;8.09;89.76;93235.56;5110060;28;20051;-40
2022/04/22 00:40:44;;;;;;;23.95;16.20;;;;;;;8.07;89.99;93262.13;5109633;28;20084;-40
2022/04/22 00:43:21;;;;;;;20.83;13.77;;;;;;;8.18;89.84;93264.59;5111066;28;20027;-40
2022/04/22 00:45:47;;;;;;;21.83;15.48;;;;;;;8.11;90.12;93270.78;5110459;28;20028;-39
2022/04/22 00:48:14;;;;;;;20.23;14.27;;;;;;;8.27;88.80;93288.91;5108951;28;20754;-39
2022/04/22 00:50:40;;;;;;;19.85;13.65;;;;;;;8.24;88.87;93287.19;5093920;28;20024;-39
2022/04/22 00:53:06;;;;;;;20.33;14.80;;;;;;;8.18;89.39;93284.59;5090553;28;20432;-39
2022/04/22 00:55:32;;;;;;;19.98;14.05;;;;;;;8.18;89.63;93270.09;5090029;28;20462;-40
2022/04/22 00:57:58;;;;;;;22.33;16.85;;;;;;;8.13;90.39;93257.97;5089812;28;20024;-39
2022/04/22 01:00:24;;;;;;;19.77;14.40;;;;;;;8.13;90.71;93237.97;5088983;28;20032;-39
2022/04/22 01:02:49;;;;;;;19.77;14.07;;;;;;;8.24;90.27;93229.44;5089023;28;20165;-39
2022/04/22 01:10:43;;;;;;;25.25;17.23;;;;;;;8.29;90.11;93209.34;5089823;28;20111;-39
2022/04/22 01:13:09;;;;;;;21.05;16.88;;;;;;;8.40;89.65;93206.31;5093895;28;20487;-39
2022/04/22 01:15:35;;;;;;;24.92;16.45;;;;;;;8.32;89.39;93191.75;5107996;28;20131;-40
2022/04/22 01:18:01;;;;;;;24.80;17.50;;;;;;;8.36;89.37;93179.13;5108960;28;20490;-40
2022/04/22 01:20:27;;;;;;;29.00;19.52;;;;;;;8.35;89.40;93174.19;5109892;28;20031;-38
2022/04/22 01:22:52;;;;;;;23.35;17.27;;;;;;;8.34;89.46;93189.94;5110145;28;20102;-38
2022/04/22 01:25:18;;;;;;;21.70;15.23;;;;;;;8.39;89.52;93196.56;5110131;28;20023;-38
2022/04/22 01:27:45;;;;;;;22.27;16.25;;;;;;;8.35;89.02;93199.69;5090808;28;20024;-38
2022/04/22 01:30:10;;;;;;;20.55;14.70;;;;;;;8.40;89.08;93203.56;5088052;28;20413;-38
2022/04/22 01:32:36;;;;;;;20.70;14.55;;;;;;;8.41;88.31;93202.28;5088169;28;20077;-37
2022/04/22 01:35:03;;;;;;;17.38;13.68;;;;;;;8.27;88.14;93200.91;5088763;28;20040;-37
2022/04/22 01:37:29;;;;;;;15.95;12.00;;;;;;;8.09;88.90;93196.34;5089070;28;20020;-38
2022/04/22 01:39:54;;;;;;;19.00;12.52;;;;;;;7.90;90.58;93198.56;5089846;28;20542;-37
2022/04/22 01:42:20;;;;;;;17.80;12.32;;;;;;;7.84;91.25;93208.97;5089195;28;20043;-37
2022/04/22 01:44:46;;;;;;;16.20;11.80;;;;;;;7.84;91.43;93214.47;5089527;28;20035;-38
2022/04/22 01:47:11;;;;;;;17.88;12.30;;;;;;;7.80;91.18;93214.78;5089030;28;20619;-38
2022/04/22 01:49:37;;;;;;;14.50;11.32;;;;;;;7.87;91.02;93213.38;5089014;28;20209;-37
2022/04/22 01:52:02;;;;;;;22.13;14.55;;;;;;;7.89;90.12;93199.84;5101840;28;20030;-37
2022/04/22 01:54:28;;;;;;;12.70;10.32;;;;;;;7.79;89.44;93179.59;5109319;28;20107;-37
2022/04/22 01:56:53;;;;;;;17.95;11.77;;;;;;;7.94;89.21;93177.72;5110012;28;20016;-37
2022/04/22 01:59:19;;;;;;;16.42;12.25;;;;;;;7.91;88.55;93172.53;5109161;28;20020;-38
2022/04/22 02:01:44;;;;;;;17.67;13.13;;;;;;;7.95;88.96;93167.47;5107949;28;20066;-38
2022/04/22 02:04:10;;;;;;;15.55;12.30;;;;;;;7.90;89.57;93157.34;5108986;28;20056;-38
2022/04/22 02:06:35;;;;;;;18.45;12.38;;;;;;;7.94;89.84;93158.47;5109434;28;20035;-38
2022/04/22 02:09:00;;;;;;;18.00;13.13;;;;;;;7.94;89.83;93163.22;5109494;28;20019;-39
2022/04/22 02:11:26;;;;;;;14.65;11.38;;;;;;;7.96;89.67;93160.69;5109798;28;20065;-39
2022/04/22 02:13:51;;;;;;;15.13;11.70;;;;;;;7.75;89.20;93135.25;5105249;28;20028;-39
2022/04/22 02:16:17;;;;;;;25.63;15.32;;;;;;;7.94;89.14;93174.22;5094222;28;20048;-38
2022/04/22 02:18:42;;;;;;;18.63;13.07;;;;;;;7.95;88.78;93168.19;5088442;28;20028;-38
2022/04/22 02:21:09;;;;;;;19.88;11.88;;;;;;;7.97;88.14;93173.16;5089110;28;20619;-39
2022/04/22 02:23:35;;;;;;;12.63;9.70;;;;;;;8.00;87.23;93164.56;5087731;28;20089;-38
2022/04/22 02:26:01;;;;;;;16.35;12.80;;;;;;;8.09;87.16;93171.59;5087576;28;20830;-38
2022/04/22 02:28:33;;;;;;;15.90;12.15;;;;;;;8.13;87.19;93169.22;5087403;28;20024;-37
2022/04/22 02:31:06;;;;;;;18.00;13.05;;;;;;;8.11;87.75;93169.03;5100790;28;20072;-38
2022/04/22 02:33:33;;;;;;;16.38;12.73;;;;;;;7.94;87.68;93141.25;5109250;28;20052;-37
2022/04/22 02:35:59;;;;;;;16.23;14.45;;;;;;;8.08;88.00;93178.34;5091612;28;20098;-38
2022/04/22 02:38:26;;;;;;;18.48;14.38;;;;;;;8.05;87.55;93171.94;5088871;28;20110;-37
2022/04/22 02:46:20;;;;;;;15.70;11.18;;;;;;;8.02;87.88;93197.00;5090890;28;20054;-37
2022/04/22 02:48:45;;;;;;;15.70;11.15;;;;;;;7.98;88.04;93191.84;5092604;28;20490;-38
2022/04/22 02:51:11;;;;;;;16.15;11.63;;;;;;;8.02;87.78;93192.25;5091587;28;20024;-38
2022/04/22 02:53:36;;;;;;;14.02;10.85;;;;;;;8.04;87.43;93197.22;5091083;28;20253;-38
2022/04/22 02:56:02;;;;;;;16.95;12.13;;;;;;;8.10;87.28;93179.28;5092698;28;20016;-38
2022/04/22 02:58:27;;;;;;;14.88;11.00;;;;;;;8.08;86.95;93164.59;5091026;28;20538;-38
2022/04/22 03:00:53;;;;;;;15.88;11.52;;;;;;;8.13;86.51;93161.72;5092217;28;20032;-38
2022/04/22 03:03:18;;;;;;;13.20;10.52;;;;;;;8.11;86.45;93153.28;5092246;28;20059;-37
2022/04/22 03:05:44;;;;;;;12.70;10.25;;;;;;;8.01;86.42;93135.06;5093283;28;20107;-38
2022/04/22 03:08:09;;;;;;;14.60;11.70;;;;;;;8.10;86.85;93160.03;5099793;28;20020;-37
2022/04/22 03:10:36;;;;;;;17.98;13.10;;;;;;;8.15;85.57;93150.94;5112829;28;20019;-37
2022/04/22 03:13:03;;;;;;;13.32;10.63;;;;;;;8.05;86.03;93160.19;5112124;27;20024;-37
2022/04/22 03:15:30;;;;;;;16.40;12.80;;;;;;;7.96;86.85;93150.44;5093003;28;20460;-37
2022/04/22 03:17:55;;;;;;;19.00;13.00;;;;;;;7.89;86.78;93158.59;5091980;28;20024;-37
2022/04/22 03:20:20;;;;;;;15.00;10.95;;;;;;;8.00;86.35;93153.56;5092864;28;20016;-37
2022/04/22 03:22:46;;;;;;;18.02;12.40;;;;;;;8.02;86.55;93170.25;5093241;28;20086;-38
2022/04/22 03:25:11;;;;;;;14.35;10.13;;;;;;;8.09;84.56;93174.34;5092957;28;20024;-38
2022/04/22 03:27:37;;;;;;;17.42;9.90;;;;;;;7.99;84.21;93165.81;5093170;28;20116;-38
2022/04/22 03:30:04;;;;;;;14.73;9.80;;;;;;;8.09;83.57;93175.09;5092865;28;20511;-38
2022/04/22 03:32:30;;;;;;;13.77;9.50;;;;;;;8.09;82.66;93188.09;5093074;28;20024;-38
2022/04/22 03:34:55;;;;;;;14.18;10.80;;;;;;;8.05;83.00;93191.19;5093053;28;20031;-39
2022/04/22 03:37:21;;;;;;;12.88;10.10;;;;;;;7.97;83.63;93195.88;5093013;28;20020;-38
2022/04/22 03:39:46;;;;;;;13.77;11.32;;;;;;;7.98;84.45;93197.34;5092793;28;20378;-38
2022/04/22 03:42:12;;;;;;;16.33;11.48;;;;;;;7.97;84.70;93198.63;5092550;28;20488;-37
2022/04/22 03:44:37;;;;;;;15.77;10.80;;;;;;;8.04;85.10;93199.97;5104688;28;20031;-37
2022/04/22 03:47:03;;;;;;;16.27;12.35;;;;;;;8.00;85.27;93189.31;5113154;28;20484;-37
2022/04/22 03:49:30;;;;;;;18.13;10.65;;;;;;;8.10;84.93;93193.03;5113235;28;20023;-37
2022/04/22 03:51:56;;;;;;;19.70;11.95;;;;;;;8.12;84.94;93193.25;5097214;28;20051;-37
2022/04/22 03:54:24;;;;;;;16.38;11.55;;;;;;;8.05;84.97;93199.44;5092340;28;20489;-37
2022/04/22 03:59:35;;;;;;;16.98;12.15;;;;;;;7.91;86.24;93194.53;5112846;28;20038;-37
2022/04/22 04:02:01;;;;;;;15.95;11.75;;;;;;;7.90;86.53;93198.56;5112721;28;20030;-37
2022/04/22 04:04:26;;;;;;;15.30;12.43;;;;;;;7.89;86.89;93203.31;5112786;28;20027;-37
2022/04/22 04:06:52;;;;;;;14.85;11.30;;;;;;;7.91;86.78;93202.78;5103500;28;20042;-37
2022/04/22 04:17:35;;;;;;;21.08;12.23;;;;;;;7.75;88.02;93204.69;5101151;28;20124;-36
2022/04/22 04:23:44;;;;;;;16.35;12.57;;;;;;;7.73;88.97;93207.22;5112133;28;20034;-36
2022/04/22 04:25:40;;;;;;;13.63;10.73;;;;;;;7.78;88.16;93211.09;5102859;28;20436;-39
2022/04/22 04:28:09;;;;;;;13.25;10.40;;;;;;;7.74;88.59;93216.94;5112004;28;20028;-39
2022/04/22 04:30:38;;;;;;;17.65;12.02;;;;;;;7.73;89.09;93206.50;5112295;28;20024;-40
2022/04/22 04:33:04;;;;;;;18.75;13.55;;;;;;;7.71;88.48;93192.56;5112216;28;20098;-39
2022/04/22 04:35:30;;;;;;;16.95;12.63;;;;;;;7.78;89.08;93213.84;5112244;28;20051;-39
2022/04/22 04:37:56;;;;;;;15.85;11.30;;;;;;;7.79;89.38;93207.84;5112235;28;20515;-39
2022/04/22 04:40:21;;;;;;;13.48;10.73;;;;;;;7.79;88.96;93207.84;5111913;28;20528;-38
2022/04/22 04:42:47;;;;;;;19.40;12.13;;;;;;;7.84;89.17;93219.97;5112105;27;20041;-38
2022/04/22 04:45:12;;;;;;;22.33;18.77;;;;;;;7.83;89.31;93208.22;5111757;28;20660;-38
2022/04/22 04:47:41;;;;;;;20.15;14.27;;;;;;;7.73;89.97;93212.00;5111941;28;20023;-39
2022/04/22 04:50:08;;;;;;;18.02;13.40;;;;;;;7.62;90.39;93199.25;5111959;27;20023;-38
2022/04/22 04:52:34;;;;;;;20.02;13.50;;;;;;;7.76;90.42;93232.88;5111708;28;20039;-39
2022/04/22 04:55:00;;;;;;;18.92;12.95;;;;;;;7.87;90.03;93214.13;5111923;28;20058;-37
2022/04/22 04:57:26;;;;;;;16.75;12.25;;;;;;;7.99;89.95;93217.34;5111852;28;20031;-37
2022/04/22 04:59:51;;;;;;;17.65;12.35;;;;;;;8.02;89.67;93224.50;5111269;28;20501;-37
2022/04/22 05:02:17;;;;;;;20.92;14.00;;;;;;;7.92;90.40;93212.50;5111414;28;20550;-37
2022/04/22 05:04:42;;;;;;;18.00;14.63;;;;;;;8.06;90.30;93213.91;5110612;28;20077;-37
2022/04/22 05:07:07;;;;;;;25.20;16.02;;;;;;;8.16;89.74;93201.91;5111373;28;20020;-38
2022/04/22 05:09:33;;;;;;;17.38;14.52;;;;;;;8.19;89.74;93203.56;5111308;28;20023;-37
2022/04/22 05:11:58;;;;;;;20.00;15.43;;;;;;;7.99;90.05;93198.09;5111263;28;20027;-37
2022/04/22 05:14:26;;;;;;;15.48;11.13;;;;;;;8.02;90.93;93177.75;5107175;28;20031;-36
2022/04/22 05:16:51;;;;;;;17.00;12.52;;;;;;;8.03;90.80;93173.75;5111453;28;20040;-38
2022/04/22 05:19:19;;;;;;;14.90;10.63;;;;;;;8.19;90.99;93169.81;5111782;28;20496;-37
2022/04/22 05:21:44;;;;;;;19.83;12.07;;;;;;;8.31;90.07;93157.28;5111350;28;20031;-38
2022/04/22 05:24:09;;;;;;;26.85;17.67;;;;;;;8.14;90.44;93151.47;5111380;28;20037;-38
2022/04/22 05:26:35;;;;;;;22.02;14.20;;;;;;;8.19;90.85;93150.56;5107502;28;20019;-38
2022/04/22 05:29:01;;;;;;;13.43;8.68;;;;;;;8.23;89.40;93137.22;5090944;28;20635;-38
2022/04/22 05:34:21;;;;;;;13.30;10.13;;;;;;;8.20;90.19;93141.06;5070457;28;20043;-37
2022/04/22 05:36:47;;;;;;;12.50;9.23;;;;;;;8.34;89.47;93145.19;5105248;28;20035;-37
2022/04/22 05:39:12;;;;;;;13.32;8.65;;;;;;;8.43;87.82;93133.69;5093103;28;20068;-38
2022/04/22 05:41:37;;;;;;;11.82;8.73;;;;;;;8.37;88.19;93138.63;5094426;28;20027;-37
2022/04/22 05:44:04;;;;;;;8.15;6.85;;;;;;;8.25;86.87;93096.91;5100861;28;20043;-37
2022/04/22 05:46:29;;;;;;;9.70;7.40;;;;;;;8.45;87.51;93124.88;5090591;28;20055;-37
2022/04/22 05:48:54;;;;;;;10.07;7.20;;;;;;;8.50;87.58;93116.50;5090412;28;20501;-37
2022/04/22 05:51:20;;;;;;;10.77;6.82;;;;;;;8.54;87.01;93114.13;5091204;28;20031;-37
2022/04/22 05:53:48;;;;;;;10.13;6.85;;;;;;;8.57;86.48;93112.31;5110597;28;20023;-37
2022/04/22 05:56:13;;;;;;;7.70;6.63;;;;;;;8.51;86.39;93106.22;5110889;28;20515;-37
2022/04/22 05:58:39;;;;;;;8.75;6.45;;;;;;;8.56;86.61;93091.56;5110847;28;20098;-37
2022/04/22 06:01:04;;;;;;;10.15;6.97;;;;;;;8.55;86.54;93074.34;5108064;28;20512;-36
2022/04/22 06:03:30;;;;;;;11.27;7.88;;;;;;;8.51;87.01;93034.69;5103022;28;20027;-38
2022/04/22 06:05:55;;;;;;;10.27;8.27;;;;;;;8.43;88.16;93033.91;5110394;28;20019;-37
2022/04/22 06:11:05;;;;;;;8.90;6.50;;;;;;;8.31;89.21;93034.25;5110721;28;20484;-37
2022/04/22 06:13:30;;;;;;;10.02;6.55;;;;;;;8.33;89.48;93000.72;5103654;28;20032;-36
2022/04/22 06:15:57;;;;;;;12.23;7.65;;;;;;;8.33;89.50;92973.94;5088976;28;20092;-37
2022/04/22 06:18:23;;;;;;;9.27;6.88;;;;;;;8.29;88.66;92983.81;5092700;28;20084;-38
2022/04/22 06:20:50;;;;;;;11.90;7.70;;;;;;;8.31;88.76;92986.75;5094348;28;20111;-38
2022/04/22 06:23:15;;;;;;;13.23;9.15;;;;;;;8.40;88.22;93006.22;5094010;28;20508;-38
2022/04/22 06:25:45;;;;;;;9.13;7.40;;;;;;;8.51;87.74;92999.66;5094422;28;20020;-38
2022/04/22 06:28:12;;;;;;;7.57;5.40;;;;;;;8.71;85.57;93006.28;5094052;28;20036;-38
2022/04/22 06:30:38;;;;;;;11.95;7.88;;;;;;;8.81;84.74;92996.97;5105893;28;20115;-39
2022/04/22 06:33:05;;;;;;;8.18;6.18;;;;;;;8.99;83.27;92997.91;5114516;28;20103;-38
2022/04/22 06:35:31;;;;;;;7.80;5.68;;;;;;;9.10;82.29;92997.53;5114272;28;20024;-38
2022/04/22 06:37:57;;;;;;;9.45;6.25;;;;;;;9.18;81.58;92985.25;5114078;28;20037;-37
2022/04/22 06:45:51;;;;;;;10.15;6.63;;;;;;;9.58;79.87;92999.19;5113785;28;20097;-38
2022/04/22 06:48:32;;;;;;;7.15;6.43;;;;;;;9.81;79.37;93001.94;5114254;28;20032;-39
2022/04/22 06:50:59;;;;;;;12.43;6.50;;;;;;;10.15;78.03;93002.22;5114206;28;20103;-37
2022/04/22 06:53:26;;;;;;;10.63;5.43;;;;;;;10.38;76.30;92993.84;5113797;28;20499;-38
2022/04/22 06:55:53;;;;;;;7.82;5.72;;;;;;;10.60;74.96;92993.03;5093629;28;20028;-38
2022/04/22 06:58:20;;;;;;;10.82;5.40;;;;;;;10.79;74.17;92981.50;5105325;28;20042;-38
2022/04/22 07:00:46;;;;;;;8.18;5.88;;;;;;;10.88;73.49;92981.63;5109086;28;20030;-37
2022/04/22 07:03:13;;;;;;;9.52;5.60;;;;;;;10.89;75.14;92993.41;5111347;28;20102;-37
2022/04/22 07:05:40;;;;;;;8.45;5.63;;;;;;;10.90;73.15;92984.56;5111291;27;20488;-37
2022/04/22 07:08:08;;;;;;;7.20;5.85;;;;;;;10.95;72.03;92980.13;5111319;28;20048;-38
2022/04/22 07:10:34;;;;;;;6.68;5.68;;;;;;;10.86;72.20;92961.38;5111537;28;20028;-38
2022/04/22 07:13:00;;;;;;;8.38;5.97;;;;;;;10.98;72.35;92973.47;5110161;28;20082;-39
2022/04/22 07:15:26;;;;;;;5.63;4.93;;;;;;;11.12;71.47;92985.69;5091060;28;20568;-38
2022/04/22 07:17:52;;;;;;;8.45;4.85;;;;;;;11.19;70.13;92976.63;5090923;28;20505;-38
2022/04/22 07:20:18;;;;;;;5.55;5.03;;;;;;;11.29;70.92;92974.72;5091230;28;20043;-39
2022/04/22 07:22:44;;;;;;;7.43;5.22;;;;;;;11.42;70.52;92963.34;5090782;28;20420;-38
2022/04/22 07:25:11;;;;;;;5.38;4.10;;;;;;;11.67;67.87;92960.59;5090269;28;20028;-38
2022/04/22 07:27:38;;;;;;;8.05;5.93;;;;;;;11.88;70.52;92952.63;5100713;28;20154;-38
2022/04/22 07:30:07;;;;;;;7.00;4.72;;;;;;;12.50;67.94;92943.78;5110809;28;20019;-38
2022/04/22 07:32:37;;;;;;;5.93;3.95;;;;;;;13.44;62.01;92933.00;5111084;28;20024;-38
2022/04/22 07:35:04;;;;;;;4.45;4.05;;;;;;;14.20;59.07;92960.13;5110711;28;20504;-38
2022/04/22 07:37:34;;;;;;;5.93;3.97;;;;;;;14.24;59.90;92955.59;5110685;28;20024;-39
2022/04/22 07:39:59;;;;;;;6.07;4.45;;;;;;;14.46;61.27;92959.28;5108757;28;20473;-38
2022/04/22 07:42:26;;;;;;;3.63;3.28;;;;;;;14.87;56.88;92930.25;5108297;28;20080;-38
2022/04/22 07:47:38;;;;;;;5.97;4.03;;;;;;;15.68;55.24;92947.63;5099152;28;20038;-38
2022/04/22 07:50:07;;;;;;;6.85;3.35;;;;;;;15.53;54.07;92920.19;5107757;27;20105;-39
2022/04/22 07:52:33;;;;;;;4.72;3.85;;;;;;;15.26;56.49;92928.06;5105505;28;20027;-38
2022/04/22 07:54:59;;;;;;;5.70;4.07;;;;;;;15.84;54.54;92936.84;5103234;28;20826;-38
2022/04/22 07:57:25;;;;;;;4.00;3.10;;;;;;;16.57;52.10;92940.28;5087720;28;20020;-38
2022/04/22 07:59:51;;;;;;;4.25;3.85;;;;;;;16.66;51.86;92933.16;5086104;28;20479;-38
2022/04/22 08:02:16;;;;;;;4.65;3.65;;;;;;;16.61;51.84;92931.47;5090145;28;20102;-39
2022/04/22 08:04:43;;;;;;;9.25;5.70;;;;;;;17.30;50.75;92939.25;5105985;28;20512;-38
2022/04/22 08:07:09;;;;;;;7.43;4.55;;;;;;;18.12;48.69;92933.03;5108185;28;20015;-39
2022/04/22 08:09:35;;;;;;;7.13;4.88;;;;;;;18.60;48.83;92937.16;5107806;28;20035;-38
2022/04/22 08:12:00;;;;;;;7.07;4.13;;;;;;;18.44;48.70;92936.22;5107765;28;20092;-40
2022/04/22 08:14:27;;;;;;;5.25;3.90;;;;;;;18.89;46.46;92931.78;5104108;28;20115;-39
2022/04/22 08:16:54;;;;;;;4.70;4.03;;;;;;;18.99;46.19;92914.84;5107867;28;20030;-40
2022/04/22 08:19:20;;;;;;;4.65;3.58;;;;;;;19.26;45.68;92906.50;5107711;28;20065;-38
2022/04/22 08:21:46;;;;;;;5.13;3.60;;;;;;;19.67;44.48;92910.84;5107968;28;20428;-40
2022/04/22 08:24:11;;;;;;;4.32;2.95;;;;;;;19.57;44.32;92927.13;5108707;28;20020;-39
2022/04/22 08:26:37;;;;;;;6.15;3.40;;;;;;;19.17;46.12;92927.72;5107655;28;20057;-39
2022/04/22 08:29:03;;;;;;;3.38;3.05;;;;;;;19.75;42.79;92926.63;5109605;28;20648;-39
2022/04/22 08:31:28;;;;;;;4.05;3.10;;;;;;;18.96;44.13;92921.66;5109670;28;20068;-38
2022/04/22 08:33:55;;;;;;;6.10;3.42;;;;;;;19.16;45.00;92922.75;5110229;28;20023;-39
2022/04/22 08:36:22;;;;;;;4.38;2.88;;;;;;;19.67;42.50;92924.84;5109584;27;20024;-39
2022/04/22 08:38:47;;;;;;;5.35;3.13;;;;;;;19.09;45.04;92932.91;5103372;28;20063;-38
2022/04/22 08:41:13;;;;;;;4.00;3.60;;;;;;;18.80;45.60;92941.81;5102589;28;20086;-38
2022/04/22 08:43:39;;;;;;;3.92;3.20;;;;;;;18.41;45.68;92932.56;5109704;28;20404;-39
2022/04/22 08:49:58;;;;;;;3.30;3.00;;;;;;;18.07;46.80;92936.91;5107899;28;20023;-39
2022/04/22 08:51:37;;;;;;;3.72;3.38;;;;;;;18.21;47.28;92933.50;5101075;28;20030;-38
2022/04/22 08:54:05;;;;;;;4.05;3.25;;;;;;;18.26;46.21;92949.16;5108125;28;20023;-38
2022/04/22 08:56:33;;;;;;;2.80;2.60;;;;;;;18.48;45.60;92942.78;5108014;28;20516;-39
2022/04/22 08:58:58;;;;;;;3.60;2.53;;;;;;;18.68;44.67;92927.16;5109710;28;20028;-39
2022/04/22 09:01:24;;;;;;;3.00;2.80;;;;;;;18.49;44.75;92926.75;5108275;28;20531;-39
2022/04/22 09:03:49;;;;;;;4.05;2.83;;;;;;;18.45;45.58;92932.13;5109206;28;20031;-38
2022/04/22 09:06:15;;;;;;;3.40;3.10;;;;;;;18.42;47.18;92922.13;5109250;28;20036;-39
2022/04/22 09:08:41;;;;;;;4.28;2.72;;;;;;;19.49;43.58;92911.97;5107386;28;20027;-38
2022/04/22 09:11:06;;;;;;;5.38;2.90;;;;;;;19.97;42.78;92927.75;5097509;28;20027;-38
2022/04/22 09:13:32;;;;;;;7.45;3.25;;;;;;;21.14;40.85;92912.53;5091915;28;20633;-38
2022/04/22 09:15:59;;;;;;;2.45;2.25;;;;;;;21.25;37.35;92915.78;5088219;28;20048;-39
2022/04/22 09:18:29;;;;;;;4.00;2.47;;;;;;;21.41;37.34;92899.69;5088227;28;20081;-38
2022/04/22 09:21:02;;;;;;;4.03;2.78;;;;;;;20.62;38.37;92892.47;5088320;28;20031;-39
2022/04/22 09:23:33;;;;;;;4.15;2.42;;;;;;;20.47;38.08;92893.13;5087798;28;20161;-39
2022/04/22 09:25:59;;;;;;;4.63;2.92;;;;;;;20.31;38.74;92882.56;5088722;28;20024;-38
2022/04/22 09:28:24;;;;;;;6.32;3.17;;;;;;;20.27;39.81;92868.34;5088516;28;20041;-38
2022/04/22 09:31:04;;;;;;;3.40;2.75;;;;;;;20.45;39.99;92860.09;5088788;28;20028;-38
2022/04/22 09:33:41;;;;;;;5.00;2.47;;;;;;;21.07;38.52;92860.25;5088399;28;20028;-38
2022/04/22 09:44:58;;;;;;;2.97;2.50;;;;;;;20.51;38.59;92846.38;5089968;28;20573;-38
2022/04/22 09:47:30;;;;;;;5.95;3.83;;;;;;;20.69;40.20;92849.31;5109932;28;20110;-39
2022/04/22 09:49:56;;;;;;;5.03;3.63;;;;;;;21.03;38.16;92832.00;5092477;28;20184;-39
2022/04/22 09:52:30;;;;;;;9.60;2.70;;;;;;;21.17;38.42;92871.25;5108615;28;20031;-38
2022/04/22 09:54:57;;;;;;;2.90;2.60;;;;;;;21.44;36.19;92854.19;5098763;28;20027;-38
2022/04/22 09:57:23;;;;;;;6.78;2.13;;;;;;;21.36;36.93;92867.88;5094771;28;20016;-39
2022/04/22 09:59:48;;;;;;;3.45;2.50;;;;;;;21.13;39.33;92845.78;5090149;28;20035;-38
2022/04/22 10:02:21;;;;;;;3.65;2.42;;;;;;;21.57;35.88;92852.69;5090793;28;20511;-36
2022/04/22 10:04:49;;;;;;;4.10;2.45;;;;;;;21.73;35.63;92842.13;5097588;28;20390;-39
2022/04/22 10:07:16;;;;;;;5.43;2.23;;;;;;;21.05;36.00;92848.94;5101808;28;20510;-38
2022/04/22 10:09:42;;;;;;;2.30;1.88;;;;;;;20.70;36.92;92837.47;5107372;28;20023;-40
2022/04/22 10:12:09;;;;;;;3.05;2.13;;;;;;;20.22;38.24;92837.97;5101090;28;20072;-41
2022/04/22 10:14:38;;;;;;;5.55;2.50;;;;;;;20.83;36.46;92821.94;5098470;28;20023;-40
2022/04/22 10:17:04;;;;;;;;;;;;;;;;;;5101683;28;20028;-40
2022/04/22 10:19:32;;;;;;;4.43;1.77;;;;;;;20.95;35.72;92848.47;5098616;28;20290;-40
2022/04/22 10:21:58;;;;;;;4.32;2.20;;;;;;;20.97;36.09;92833.78;5106921;28;20511;-41
2022/04/22 10:24:25;;;;;;;2.33;1.85;;;;;;;21.29;36.76;92832.47;5106286;28;20597;-39
2022/04/22 10:26:50;;;;;;;4.30;2.10;;;;;;;21.32;35.25;92824.88;5087380;28;20493;-39
2022/04/22 10:29:18;;;;;;;9.00;2.40;;;;;;;21.02;36.73;92836.16;5087011;28;20020;-39
2022/04/22 10:31:43;;;;;;;4.05;2.00;;;;;;;21.31;34.72;92838.16;5086926;28;20643;-39
2022/04/22 10:34:10;;;;;;;3.50;2.05;;;;;;;21.64;34.68;92834.69;5088957;28;20099;-39
2022/04/22 10:36:37;;;;;;;3.47;1.67;;;;;;;21.54;33.94;92825.84;5089695;28;20020;-39
2022/04/22 10:39:03;;;;;;;5.57;2.85;;;;;;;21.96;33.25;92841.03;5089535;28;20326;-39
2022/04/22 10:41:33;;;;;;;4.93;2.30;;;;;;;21.28;33.32;92814.19;5085308;28;20528;-39
2022/04/22 10:49:46;;;;;;;6.13;2.40;;;;;;;21.43;35.11;92787.44;5107129;28;20027;-38
2022/04/22 10:52:19;;;;;;;7.15;2.85;;;;;;;20.50;36.41;92786.03;5086622;28;20052;-38
2022/04/22 10:54:53;;;;;;;3.40;2.22;;;;;;;20.62;36.86;92769.75;5087927;28;20031;-39
2022/04/22 10:57:23;;;;;;;3.28;2.50;;;;;;;20.20;37.54;92787.38;5089632;28;20028;-39
2022/04/22 11:00:27;;;;;;;4.22;2.72;;;;;;;20.52;38.86;92757.34;5089886;28;20476;-39
2022/04/22 11:03:00;;;;;;;2.88;2.58;;;;;;;20.97;38.34;92778.38;5090526;28;20082;-39
2022/04/22 11:05:30;;;;;;;3.95;1.92;;;;;;;20.48;37.78;92774.72;5093477;28;20028;-39
2022/04/22 11:07:57;;;;;;;3.60;2.28;;;;;;;20.58;38.23;92783.59;5093587;28;20089;-39
2022/04/22 11:10:23;;;;;;;4.55;2.28;;;;;;;20.63;38.61;92796.47;5093488;28;20020;-39
2022/04/22 11:12:56;;;;;;;5.07;2.60;;;;;;;20.37;38.04;92784.00;5096128;28;20027;-39
2022/04/22 11:15:43;;;;;;;5.00;2.25;;;;;;;20.34;38.22;92782.47;5099143;28;20517;-39
2022/04/22 11:18:16;;;;;;;3.72;2.97;;;;;;;20.32;39.88;92771.88;5092997;28;20027;-37
2022/04/22 11:20:43;;;;;;;4.72;2.42;;;;;;;19.56;40.16;92782.84;5098084;28;20031;-38
2022/04/22 11:23:13;;;;;;;6.45;2.78;;;;;;;19.46;41.07;92768.34;5103250;28;20026;-38
2022/04/22 11:25:38;;;;;;;4.13;3.03;;;;;;;19.08;42.48;92785.94;5102469;28;20020;-38
2022/04/22 11:28:05;;;;;;;6.60;3.67;;;;;;;19.17;41.42;92771.00;5110409;28;20063;-39
2022/04/22 11:30:32;;;;;;;3.00;2.60;;;;;;;18.78;43.50;92782.28;5109773;28;20078;-38
2022/04/22 11:33:54;;;;;;;2.63;2.22;;;;;;;18.71;42.99;92777.00;5100760;28;20782;-37
2022/04/22 11:36:21;;;;;;;4.13;2.67;;;;;;;18.65;42.90;92763.41;5059815;28;20027;-38
2022/04/22 11:38:48;;;;;;;8.82;2.95;;;;;;;18.72;43.03;92765.19;5058153;28;20029;-38
2022/04/22 11:41:14;;;;;;;7.38;2.67;;;;;;;18.40;43.38;92755.03;5086805;28;20039;-38
2022/04/22 11:43:40;;;;;;;4.05;3.00;;;;;;;18.40;44.48;92766.22;5111856;28;20034;-38
2022/04/22 11:46:05;;;;;;;3.90;2.95;;;;;;;18.21;44.83;92752.59;5112295;28;20501;-38
2022/04/22 11:48:31;;;;;;;4.05;2.63;;;;;;;18.26;42.88;92748.66;5113199;28;20524;-38
2022/04/22 11:51:00;;;;;;;3.83;2.80;;;;;;;18.46;43.03;92749.78;5112877;28;20011;-39
2022/04/22 11:53:26;;;;;;;5.63;4.50;;;;;;;18.34;44.89;92746.34;5113196;28;20069;-39
2022/04/22 11:55:52;;;;;;;9.57;3.58;;;;;;;18.27;44.08;92758.50;5112485;28;20092;-39
2022/04/22 11:58:24;;;;;;;9.18;3.05;;;;;;;18.26;46.17;92747.97;5107524;28;20466;-39
2022/04/22 12:06:22;;;;;;;9.38;4.93;;;;;;;17.97;47.01;92712.88;5109251;28;20093;-39
2022/04/22 12:08:50;;;;;;;8.52;4.18;;;;;;;18.23;46.64;92726.81;5107929;28;20016;-39
2022/04/22 12:11:16;;;;;;;7.47;3.85;;;;;;;18.06;46.04;92728.72;5097204;28;20716;-38
2022/04/22 12:13:42;;;;;;;8.05;3.90;;;;;;;17.95;45.90;92715.53;5105845;28;20047;-38
2022/04/22 12:16:07;;;;;;;6.80;3.30;;;;;;;17.95;46.35;92728.81;5098806;28;20539;-39
2022/04/22 12:18:34;;;;;;;6.47;4.53;;;;;;;18.15;47.96;92719.44;5108741;28;20028;-38
2022/04/22 12:21:00;;;;;;;3.70;3.40;;;;;;;18.41;47.86;92728.53;5102497;28;20193;-38
2022/04/22 12:23:39;;;;;;;5.75;3.65;;;;;;;18.62;45.20;92721.97;5110319;28;20412;-39
2022/04/22 12:26:13;;;;;;;6.57;3.85;;;;;;;18.86;46.84;92732.34;5106170;28;20024;-39
2022/04/22 12:29:02;;;;;;;5.65;4.10;;;;;;;19.06;47.14;92727.06;5109570;28;20038;-39
2022/04/22 12:31:30;;;;;;;4.20;3.38;;;;;;;18.77;45.54;92724.16;5110285;28;20038;-38
2022/04/22 12:34:00;;;;;;;4.60;3.63;;;;;;;18.47;45.55;92719.78;5110295;28;20035;-38